sensor_id;sensor_type;location;lat;lon;timestamp;pressure;altitude;pressure_sealevel;temperature;humidity
40998;BME280;26740;45.944;12.480;2022-09-29T00:02:25;99433.72;;;12.73;100.00
40998;BME280;26740;45.944;12.480;2022-09-29T00:04:50;99432.81;;;12.78;100.00
40998;BME280;26740;45.944;12.480;2022-09-29T00:07:17;99444.56;;;12.94;100.00
40998;BME280;26740;45.944;12.480;2022-09-29T00:09:43;99445.28;;;13.18;100.00
40998;BME280;26740;45.944;12.480;2022-09-29T00:12:08;99449.16;;;13.36;100.00
40998;BME280;26740;45.944;12.480;2022-09-29T00:14:34;99453.81;;;13.41;100.00
40998;BME280;26740;45.944;12.480;2022-09-29T00:17:00;99457.56;;;13.50;100.00
40998;BME280;26740;45.944;12.480;2022-09-29T00:19:25;99455.84;;;13.68;100.00
40998;BME280;26740;45.944;12.480;2022-09-29T00:21:53;99467.63;;;13.79;100.00
40998;BME280;26740;45.944;12.480;2022-09-29T00:24:18;99459.88;;;13.76;100.00
40998;BME280;26740;45.944;12.480;2022-09-29T00:26:44;99458.97;;;13.80;100.00
40998;BME280;26740;45.944;12.480;2022-09-29T00:29:11;99462.16;;;13.88;100.00
40998;BME280;26740;45.944;12.480;2022-09-29T00:31:37;99457.63;;;14.06;100.00
40998;BME280;26740;45.944;12.480;2022-09-29T00:34:03;99453.81;;;14.01;100.00
40998;BME280;26740;45.944;12.480;2022-09-29T00:36:28;99452.34;;;14.04;100.00
40998;BME280;26740;45.944;12.480;2022-09-29T00:38:54;99452.16;;;14.14;100.00
40998;BME280;26740;45.944;12.480;2022-09-29T00:41:34;99446.78;;;14.18;100.00
40998;BME280;26740;45.944;12.480;2022-09-29T00:46:54;99448.03;;;14.12;100.00
40998;BME280;26740;45.944;12.480;2022-09-29T00:49:40;99439.97;;;14.10;100.00
40998;BME280;26740;45.944;12.480;2022-09-29T00:52:12;99440.97;;;14.00;100.00
40998;BME280;26740;45.944;12.480;2022-09-29T00:54:44;99435.09;;;14.02;100.00
40998;BME280;26740;45.944;12.480;2022-09-29T00:57:14;99430.03;;;14.04;100.00
40998;BME280;26740;45.944;12.480;2022-09-29T00:59:57;99437.28;;;14.05;100.00
40998;BME280;26740;45.944;12.480;2022-09-29T01:02:29;99439.75;;;14.07;100.00
40998;BME280;26740;45.944;12.480;2022-09-29T01:04:56;99439.97;;;14.10;100.00
40998;BME280;26740;45.944;12.480;2022-09-29T01:07:23;99440.38;;;14.03;100.00
40998;BME280;26740;45.944;12.480;2022-09-29T01:09:51;99430.13;;;14.13;100.00
40998;BME280;26740;45.944;12.480;2022-09-29T01:12:19;99435.81;;;14.08;100.00
40998;BME280;26740;45.944;12.480;2022-09-29T01:14:45;99433.84;;;14.22;100.00
40998;BME280;26740;45.944;12.480;2022-09-29T01:17:12;99441.59;;;14.25;100.00
40998;BME280;26740;45.944;12.480;2022-09-29T01:23:10;99430.81;;;14.32;100.00
40998;BME280;26740;45.944;12.480;2022-09-29T01:36:32;99417.84;;;14.50;100.00
40998;BME280;26740;45.944;12.480;2022-09-29T01:42:16;99409.38;;;14.41;100.00
40998;BME280;26740;45.944;12.480;2022-09-29T01:47:35;99405.88;;;14.50;100.00
40998;BME280;26740;45.944;12.480;2022-09-29T01:50:11;99408.47;;;14.46;100.00
40998;BME280;26740;45.944;12.480;2022-09-29T01:52:41;99418.31;;;14.44;100.00
40998;BME280;26740;45.944;12.480;2022-09-29T01:55:11;99413.44;;;14.49;100.00
40998;BME280;26740;45.944;12.480;2022-09-29T01:57:53;99417.16;;;14.45;100.00
40998;BME280;26740;45.944;12.480;2022-09-29T02:00:20;99419.13;;;14.44;100.00
40998;BME280;26740;45.944;12.480;2022-09-29T02:03:17;99413.22;;;14.46;100.00
40998;BME280;26740;45.944;12.480;2022-09-29T02:05:51;99407.00;;;14.49;100.00
40998;BME280;26740;45.944;12.480;2022-09-29T02:11:22;99415.72;;;14.47;100.00
40998;BME280;26740;45.944;12.480;2022-09-29T02:14:01;99420.06;;;14.39;100.00
40998;BME280;26740;45.944;12.480;2022-09-29T02:16:31;99424.00;;;14.38;100.00
40998;BME280;26740;45.944;12.480;2022-09-29T02:19:16;99421.09;;;14.44;100.00
40998;BME280;26740;45.944;12.480;2022-09-29T02:21:43;99416.75;;;14.37;100.00
40998;BME280;26740;45.944;12.480;2022-09-29T02:24:10;99419.31;;;14.48;100.00
40998;BME280;26740;45.944;12.480;2022-09-29T02:26:36;99425.53;;;14.45;100.00
40998;BME280;26740;45.944;12.480;2022-09-29T02:29:03;99425.41;;;14.50;100.00
40998;BME280;26740;45.944;12.480;2022-09-29T02:31:30;99422.97;;;14.34;100.00
40998;BME280;26740;45.944;12.480;2022-09-29T02:33:57;99427.22;;;14.32;100.00
40998;BME280;26740;45.944;12.480;2022-09-29T02:36:53;99416.78;;;14.23;100.00
40998;BME280;26740;45.944;12.480;2022-09-29T02:50:45;99408.31;;;14.15;100.00
40998;BME280;26740;45.944;12.480;2022-09-29T02:53:44;99406.97;;;14.12;100.00
40998;BME280;26740;45.944;12.480;2022-09-29T02:56:58;99400.56;;;14.12;100.00
40998;BME280;26740;45.944;12.480;2022-09-29T02:59:41;99396.53;;;13.90;100.00
40998;BME280;26740;45.944;12.480;2022-09-29T03:02:07;99386.41;;;13.67;100.00
40998;BME280;26740;45.944;12.480;2022-09-29T03:04:33;99391.78;;;13.49;100.00
40998;BME280;26740;45.944;12.480;2022-09-29T03:06:58;99386.16;;;13.35;100.00
40998;BME280;26740;45.944;12.480;2022-09-29T03:09:24;99383.00;;;13.23;100.00
40998;BME280;26740;45.944;12.480;2022-09-29T03:11:50;99386.94;;;13.22;100.00
40998;BME280;26740;45.944;12.480;2022-09-29T03:14:15;99387.78;;;13.22;100.00
40998;BME280;26740;45.944;12.480;2022-09-29T03:16:41;99387.56;;;13.19;100.00
40998;BME280;26740;45.944;12.480;2022-09-29T03:19:07;99380.19;;;13.09;100.00
40998;BME280;26740;45.944;12.480;2022-09-29T03:21:33;99386.94;;;13.22;100.00
40998;BME280;26740;45.944;12.480;2022-09-29T03:24:00;99377.28;;;13.33;100.00
40998;BME280;26740;45.944;12.480;2022-09-29T03:26:26;99369.75;;;13.34;100.00
40998;BME280;26740;45.944;12.480;2022-09-29T03:28:51;99375.84;;;13.36;100.00
40998;BME280;26740;45.944;12.480;2022-09-29T03:31:18;99381.53;;;13.44;100.00
40998;BME280;26740;45.944;12.480;2022-09-29T03:33:43;99387.09;;;13.44;100.00
40998;BME280;26740;45.944;12.480;2022-09-29T03:36:09;99388.88;;;13.54;100.00
40998;BME280;26740;45.944;12.480;2022-09-29T03:38:36;99390.66;;;13.50;100.00
40998;BME280;26740;45.944;12.480;2022-09-29T03:41:03;99386.72;;;13.51;100.00
40998;BME280;26740;45.944;12.480;2022-09-29T03:43:29;99394.38;;;13.59;100.00
40998;BME280;26740;45.944;12.480;2022-09-29T03:45:55;99405.41;;;13.51;100.00
40998;BME280;26740;45.944;12.480;2022-09-29T03:48:21;99399.94;;;13.45;100.00
40998;BME280;26740;45.944;12.480;2022-09-29T03:50:49;99400.94;;;13.50;100.00
40998;BME280;26740;45.944;12.480;2022-09-29T03:53:15;99405.19;;;13.47;100.00
40998;BME280;26740;45.944;12.480;2022-09-29T03:55:46;99405.19;;;13.47;100.00
40998;BME280;26740;45.944;12.480;2022-09-29T03:58:12;99408.59;;;13.44;100.00
40998;BME280;26740;45.944;12.480;2022-09-29T04:00:37;99400.09;;;13.35;100.00
40998;BME280;26740;45.944;12.480;2022-09-29T04:03:03;99404.03;;;13.34;100.00
40998;BME280;26740;45.944;12.480;2022-09-29T04:05:29;99410.44;;;13.35;100.00
40998;BME280;26740;45.944;12.480;2022-09-29T04:07:55;99423.31;;;13.31;100.00
40998;BME280;26740;45.944;12.480;2022-09-29T04:10:21;99425.03;;;13.26;100.00
40998;BME280;26740;45.944;12.480;2022-09-29T04:12:47;99420.06;;;13.23;100.00
40998;BME280;26740;45.944;12.480;2022-09-29T04:15:13;99423.88;;;13.14;100.00
40998;BME280;26740;45.944;12.480;2022-09-29T04:17:39;99415.00;;;13.12;100.00
40998;BME280;26740;45.944;12.480;2022-09-29T04:20:05;99418.31;;;13.14;100.00
40998;BME280;26740;45.944;12.480;2022-09-29T04:22:32;99416.53;;;13.18;100.00
40998;BME280;26740;45.944;12.480;2022-09-29T04:24:57;99418.31;;;13.14;100.00
40998;BME280;26740;45.944;12.480;2022-09-29T04:27:24;99419.13;;;13.14;100.00
40998;BME280;26740;45.944;12.480;2022-09-29T04:29:49;99413.13;;;13.07;100.00
40998;BME280;26740;45.944;12.480;2022-09-29T04:32:15;99413.28;;;12.97;100.00
40998;BME280;26740;45.944;12.480;2022-09-29T04:34:40;99418.75;;;13.02;100.00
40998;BME280;26740;45.944;12.480;2022-09-29T04:37:07;99407.47;;;12.93;100.00
40998;BME280;26740;45.944;12.480;2022-09-29T04:39:36;99414.59;;;12.85;100.00
40998;BME280;26740;45.944;12.480;2022-09-29T04:42:02;99415.78;;;12.79;100.00
40998;BME280;26740;45.944;12.480;2022-09-29T04:44:28;99416.78;;;12.88;100.00
40998;BME280;26740;45.944;12.480;2022-09-29T04:46:53;99423.53;;;12.82;100.00
40998;BME280;26740;45.944;12.480;2022-09-29T04:49:19;99422.19;;;12.80;100.00
40998;BME280;26740;45.944;12.480;2022-09-29T04:51:45;99426.03;;;12.84;100.00
40998;BME280;26740;45.944;12.480;2022-09-29T04:54:11;99421.34;;;12.79;100.00
40998;BME280;26740;45.944;12.480;2022-09-29T04:56:37;99422.19;;;12.80;100.00
40998;BME280;26740;45.944;12.480;2022-09-29T04:59:03;99421.78;;;12.86;100.00
40998;BME280;26740;45.944;12.480;2022-09-29T05:01:29;99424.56;;;12.86;100.00
40998;BME280;26740;45.944;12.480;2022-09-29T05:03:55;99420.44;;;12.84;100.00
40998;BME280;26740;45.944;12.480;2022-09-29T05:06:21;99411.34;;;12.78;100.00
40998;BME280;26740;45.944;12.480;2022-09-29T05:08:47;99411.44;;;12.73;100.00
40998;BME280;26740;45.944;12.480;2022-09-29T05:11:13;99417.69;;;12.65;100.00
40998;BME280;26740;45.944;12.480;2022-09-29T05:13:39;99409.41;;;12.60;100.00
40998;BME280;26740;45.944;12.480;2022-09-29T05:16:05;99407.75;;;12.59;100.00
40998;BME280;26740;45.944;12.480;2022-09-29T05:18:32;99421.47;;;12.55;100.00
40998;BME280;26740;45.944;12.480;2022-09-29T05:21:06;99424.97;;;12.61;100.00
40998;BME280;26740;45.944;12.480;2022-09-29T05:23:32;99424.25;;;12.55;100.00
40998;BME280;26740;45.944;12.480;2022-09-29T05:26:05;99425.06;;;12.56;100.00
40998;BME280;26740;45.944;12.480;2022-09-29T05:28:33;99427.19;;;12.64;100.00
40998;BME280;26740;45.944;12.480;2022-09-29T05:31:01;99431.31;;;12.85;100.00
40998;BME280;26740;45.944;12.480;2022-09-29T05:33:26;99431.06;;;13.01;100.00
40998;BME280;26740;45.944;12.480;2022-09-29T05:35:52;99438.38;;;13.30;100.00
40998;BME280;26740;45.944;12.480;2022-09-29T05:38:18;99435.78;;;13.52;100.00
40998;BME280;26740;45.944;12.480;2022-09-29T05:40:45;99432.78;;;13.76;100.00
40998;BME280;26740;45.944;12.480;2022-09-29T05:43:11;99444.19;;;13.94;100.00
40998;BME280;26740;45.944;12.480;2022-09-29T05:45:36;99451.13;;;14.10;100.00
40998;BME280;26740;45.944;12.480;2022-09-29T05:48:02;99461.66;;;14.27;100.00
40998;BME280;26740;45.944;12.480;2022-09-29T05:50:28;99467.19;;;14.55;100.00
40998;BME280;26740;45.944;12.480;2022-09-29T05:52:53;99456.38;;;14.90;100.00
40998;BME280;26740;45.944;12.480;2022-09-29T05:55:19;99475.00;;;15.17;100.00
40998;BME280;26740;45.944;12.480;2022-09-29T05:57:48;99479.84;;;15.48;100.00
40998;BME280;26740;45.944;12.480;2022-09-29T06:00:14;99477.34;;;15.69;100.00
40998;BME280;26740;45.944;12.480;2022-09-29T06:02:40;99486.25;;;15.71;100.00
40998;BME280;26740;45.944;12.480;2022-09-29T06:05:05;99476.63;;;15.63;100.00
40998;BME280;26740;45.944;12.480;2022-09-29T06:07:31;99475.50;;;15.64;100.00
40998;BME280;26740;45.944;12.480;2022-09-29T06:09:57;99479.19;;;15.73;100.00
40998;BME280;26740;45.944;12.480;2022-09-29T06:12:22;99483.03;;;15.86;100.00
40998;BME280;26740;45.944;12.480;2022-09-29T06:14:48;99480.66;;;16.02;100.00
40998;BME280;26740;45.944;12.480;2022-09-29T06:17:13;99477.63;;;15.90;100.00
40998;BME280;26740;45.944;12.480;2022-09-29T06:19:39;99480.94;;;16.32;100.00
40998;BME280;26740;45.944;12.480;2022-09-29T06:22:05;99475.75;;;16.65;100.00
40998;BME280;26740;45.944;12.480;2022-09-29T06:24:30;99471.31;;;17.52;100.00
40998;BME280;26740;45.944;12.480;2022-09-29T06:26:56;99470.25;;;18.00;100.00
40998;BME280;26740;45.944;12.480;2022-09-29T06:29:21;99474.81;;;18.43;100.00
40998;BME280;26740;45.944;12.480;2022-09-29T06:31:47;99475.06;;;18.29;100.00
40998;BME280;26740;45.944;12.480;2022-09-29T06:34:13;99467.81;;;18.49;100.00
40998;BME280;26740;45.944;12.480;2022-09-29T06:36:41;99475.00;;;18.68;100.00
40998;BME280;26740;45.944;12.480;2022-09-29T06:39:25;99475.25;;;18.84;100.00
40998;BME280;26740;45.944;12.480;2022-09-29T06:41:51;99474.09;;;19.06;100.00
40998;BME280;26740;45.944;12.480;2022-09-29T06:44:21;99473.78;;;19.41;100.00
40998;BME280;26740;45.944;12.480;2022-09-29T06:46:49;99468.94;;;20.20;100.00
40998;BME280;26740;45.944;12.480;2022-09-29T06:49:16;99472.19;;;20.96;100.00
40998;BME280;26740;45.944;12.480;2022-09-29T06:51:42;99474.47;;;21.59;100.00
40998;BME280;26740;45.944;12.480;2022-09-29T06:54:10;99474.47;;;22.36;100.00
40998;BME280;26740;45.944;12.480;2022-09-29T06:56:36;99483.31;;;23.01;100.00
40998;BME280;26740;45.944;12.480;2022-09-29T06:59:01;99485.91;;;23.26;96.75
40998;BME280;26740;45.944;12.480;2022-09-29T07:01:27;99476.84;;;22.18;100.00
40998;BME280;26740;45.944;12.480;2022-09-29T07:03:52;99480.75;;;22.13;100.00
40998;BME280;26740;45.944;12.480;2022-09-29T07:06:18;99468.00;;;22.19;100.00
40998;BME280;26740;45.944;12.480;2022-09-29T07:08:44;99475.91;;;21.82;100.00
40998;BME280;26740;45.944;12.480;2022-09-29T07:11:10;99481.66;;;21.29;100.00
40998;BME280;26740;45.944;12.480;2022-09-29T07:13:36;99484.03;;;21.99;100.00
40998;BME280;26740;45.944;12.480;2022-09-29T07:16:10;99477.72;;;23.21;100.00
40998;BME280;26740;45.944;12.480;2022-09-29T07:18:38;99480.84;;;23.55;92.73
40998;BME280;26740;45.944;12.480;2022-09-29T07:21:09;99475.66;;;22.66;96.95
40998;BME280;26740;45.944;12.480;2022-09-29T07:23:35;99466.91;;;22.24;100.00
40998;BME280;26740;45.944;12.480;2022-09-29T07:26:01;99476.41;;;22.31;100.00
40998;BME280;26740;45.944;12.480;2022-09-29T07:28:28;99483.16;;;22.43;100.00
40998;BME280;26740;45.944;12.480;2022-09-29T07:31:08;99484.78;;;22.44;100.00
40998;BME280;26740;45.944;12.480;2022-09-29T07:33:34;99495.81;;;22.65;100.00
40998;BME280;26740;45.944;12.480;2022-09-29T07:36:00;99502.31;;;22.33;97.33
40998;BME280;26740;45.944;12.480;2022-09-29T07:38:27;99496.88;;;21.96;99.39
40998;BME280;26740;45.944;12.480;2022-09-29T07:40:53;99494.59;;;22.18;100.00
40998;BME280;26740;45.944;12.480;2022-09-29T07:43:18;99494.53;;;22.46;100.00
40998;BME280;26740;45.944;12.480;2022-09-29T07:45:47;99492.78;;;22.74;97.21
40998;BME280;26740;45.944;12.480;2022-09-29T07:48:13;99499.94;;;22.51;94.77
40998;BME280;26740;45.944;12.480;2022-09-29T07:50:39;99500.31;;;21.90;100.00
40998;BME280;26740;45.944;12.480;2022-09-29T07:53:05;99492.84;;;22.42;99.80
40998;BME280;26740;45.944;12.480;2022-09-29T07:55:31;99501.16;;;22.86;96.41
40998;BME280;26740;45.944;12.480;2022-09-29T07:57:56;99497.03;;;22.32;97.18
40998;BME280;26740;45.944;12.480;2022-09-29T08:00:22;99497.91;;;21.88;99.98
40998;BME280;26740;45.944;12.480;2022-09-29T08:02:47;99487.44;;;21.20;100.00
40998;BME280;26740;45.944;12.480;2022-09-29T08:05:14;99493.66;;;20.73;100.00
40998;BME280;26740;45.944;12.480;2022-09-29T08:07:39;99497.97;;;20.95;100.00
40998;BME280;26740;45.944;12.480;2022-09-29T08:10:06;99503.63;;;20.95;100.00
40998;BME280;26740;45.944;12.480;2022-09-29T08:12:31;99504.09;;;20.85;100.00
40998;BME280;26740;45.944;12.480;2022-09-29T08:14:57;99509.88;;;20.76;100.00
40998;BME280;26740;45.944;12.480;2022-09-29T08:17:23;99517.50;;;20.75;100.00
40998;BME280;26740;45.944;12.480;2022-09-29T08:19:48;99528.53;;;20.68;100.00
40998;BME280;26740;45.944;12.480;2022-09-29T08:22:14;99531.97;;;20.61;100.00
40998;BME280;26740;45.944;12.480;2022-09-29T08:24:39;99532.28;;;20.48;100.00
40998;BME280;26740;45.944;12.480;2022-09-29T08:27:06;99524.72;;;20.15;100.00
40998;BME280;26740;45.944;12.480;2022-09-29T08:29:32;99521.78;;;20.11;100.00
40998;BME280;26740;45.944;12.480;2022-09-29T08:31:58;99517.94;;;20.16;100.00
40998;BME280;26740;45.944;12.480;2022-09-29T08:34:24;99517.22;;;20.19;100.00
40998;BME280;26740;45.944;12.480;2022-09-29T08:36:49;99515.94;;;20.16;100.00
40998;BME280;26740;45.944;12.480;2022-09-29T08:39:16;99520.53;;;20.33;100.00
40998;BME280;26740;45.944;12.480;2022-09-29T08:44:33;99517.50;;;20.38;100.00
40998;BME280;26740;45.944;12.480;2022-09-29T08:49:54;99518.19;;;20.23;100.00
40998;BME280;26740;45.944;12.480;2022-09-29T08:52:27;99515.34;;;20.11;100.00
40998;BME280;26740;45.944;12.480;2022-09-29T08:55:06;99510.88;;;20.10;100.00
40998;BME280;26740;45.944;12.480;2022-09-29T08:57:38;99507.88;;;19.81;100.00
40998;BME280;26740;45.944;12.480;2022-09-29T09:00:05;99510.25;;;19.70;100.00
40998;BME280;26740;45.944;12.480;2022-09-29T09:03:07;99511.50;;;19.48;100.00
40998;BME280;26740;45.944;12.480;2022-09-29T09:05:58;99512.94;;;19.33;100.00
40998;BME280;26740;45.944;12.480;2022-09-29T09:19:39;99569.53;;;17.95;100.00
40998;BME280;26740;45.944;12.480;2022-09-29T09:27:32;99574.88;;;16.78;100.00
40998;BME280;26740;45.944;12.480;2022-09-29T09:30:05;99590.22;;;16.41;100.00
40998;BME280;26740;45.944;12.480;2022-09-29T09:32:40;99607.16;;;16.36;100.00
40998;BME280;26740;45.944;12.480;2022-09-29T09:35:44;99630.69;;;16.26;100.00
40998;BME280;26740;45.944;12.480;2022-09-29T09:38:16;99632.28;;;16.18;100.00
40998;BME280;26740;45.944;12.480;2022-09-29T09:40:49;99584.84;;;15.90;100.00
40998;BME280;26740;45.944;12.480;2022-09-29T09:43:28;99567.19;;;15.81;100.00
40998;BME280;26740;45.944;12.480;2022-09-29T09:46:02;99573.16;;;15.88;100.00
40998;BME280;26740;45.944;12.480;2022-09-29T09:49:26;99584.22;;;15.94;100.00
40998;BME280;26740;45.944;12.480;2022-09-29T09:51:56;99571.81;;;15.86;100.00
40998;BME280;26740;45.944;12.480;2022-09-29T09:54:35;99563.78;;;15.93;100.00
40998;BME280;26740;45.944;12.480;2022-09-29T09:57:07;99558.00;;;15.89;100.00
40998;BME280;26740;45.944;12.480;2022-09-29T09:59:44;99553.69;;;15.83;100.00
40998;BME280;26740;45.944;12.480;2022-09-29T10:02:18;99564.63;;;15.94;100.00
40998;BME280;26740;45.944;12.480;2022-09-29T10:04:48;99557.28;;;16.06;100.00
40998;BME280;26740;45.944;12.480;2022-09-29T10:07:16;99554.22;;;16.17;100.00
40998;BME280;26740;45.944;12.480;2022-09-29T10:09:44;99566.78;;;16.28;100.00
40998;BME280;26740;45.944;12.480;2022-09-29T10:12:18;99573.84;;;16.25;100.00
40998;BME280;26740;45.944;12.480;2022-09-29T10:14:51;99584.91;;;16.30;100.00
40998;BME280;26740;45.944;12.480;2022-09-29T10:17:18;99571.91;;;16.35;100.00
40998;BME280;26740;45.944;12.480;2022-09-29T10:22:21;99577.66;;;16.29;100.00
40998;BME280;26740;45.944;12.480;2022-09-29T10:24:47;99569.63;;;16.37;100.00
40998;BME280;26740;45.944;12.480;2022-09-29T10:27:18;99551.81;;;16.33;100.00
40998;BME280;26740;45.944;12.480;2022-09-29T10:29:46;99575.72;;;16.39;100.00
40998;BME280;26740;45.944;12.480;2022-09-29T10:32:31;99587.16;;;16.51;100.00
40998;BME280;26740;45.944;12.480;2022-09-29T10:35:22;99577.66;;;16.70;100.00
40998;BME280;26740;45.944;12.480;2022-09-29T10:37:59;99579.09;;;17.07;100.00
40998;BME280;26740;45.944;12.480;2022-09-29T10:40:27;99568.91;;;17.37;100.00
40998;BME280;26740;45.944;12.480;2022-09-29T10:42:55;99572.66;;;17.76;100.00
40998;BME280;26740;45.944;12.480;2022-09-29T10:45:22;99563.38;;;18.19;100.00
40998;BME280;26740;45.944;12.480;2022-09-29T10:52:51;99563.97;;;19.02;100.00
40998;BME280;26740;45.944;12.480;2022-09-29T10:55:25;99558.56;;;18.97;100.00
40998;BME280;26740;45.944;12.480;2022-09-29T10:57:54;99564.41;;;18.92;100.00
40998;BME280;26740;45.944;12.480;2022-09-29T11:00:37;99559.34;;;19.06;100.00
40998;BME280;26740;45.944;12.480;2022-09-29T11:03:13;99554.94;;;19.81;100.00
40998;BME280;26740;45.944;12.480;2022-09-29T11:05:53;99548.41;;;20.84;100.00
40998;BME280;26740;45.944;12.480;2022-09-29T11:08:20;99553.59;;;20.82;100.00
40998;BME280;26740;45.944;12.480;2022-09-29T11:11:20;99550.88;;;20.73;100.00
40998;BME280;26740;45.944;12.480;2022-09-29T11:13:48;99544.06;;;20.87;100.00
40998;BME280;26740;45.944;12.480;2022-09-29T11:16:25;99552.50;;;21.11;100.00
40998;BME280;26740;45.944;12.480;2022-09-29T11:18:53;99553.34;;;20.75;100.00
40998;BME280;26740;45.944;12.480;2022-09-29T11:26:36;99557.47;;;20.65;100.00
40998;BME280;26740;45.944;12.480;2022-09-29T11:29:24;99564.63;;;20.75;100.00
40998;BME280;26740;45.944;12.480;2022-09-29T11:35:44;99558.84;;;21.20;100.00
40998;BME280;26740;45.944;12.480;2022-09-29T11:41:04;99549.38;;;21.53;100.00
40998;BME280;26740;45.944;12.480;2022-09-29T11:43:44;99553.25;;;21.77;100.00
40998;BME280;26740;45.944;12.480;2022-09-29T11:52:26;99528.34;;;23.81;100.00
40998;BME280;26740;45.944;12.480;2022-09-29T11:55:09;99534.03;;;23.81;100.00
40998;BME280;26740;45.944;12.480;2022-09-29T11:58:07;99534.81;;;23.62;100.00
40998;BME280;26740;45.944;12.480;2022-09-29T12:00:43;99530.88;;;23.86;100.00
40998;BME280;26740;45.944;12.480;2022-09-29T12:03:15;99532.16;;;24.12;100.00
40998;BME280;26740;45.944;12.480;2022-09-29T12:08:59;99533.19;;;24.46;100.00
40998;BME280;26740;45.944;12.480;2022-09-29T12:14:30;99543.63;;;24.88;100.00
40998;BME280;26740;45.944;12.480;2022-09-29T12:17:10;99539.97;;;24.88;100.00
40998;BME280;26740;45.944;12.480;2022-09-29T12:19:38;99535.28;;;24.99;100.00
40998;BME280;26740;45.944;12.480;2022-09-29T12:22:12;99530.84;;;25.02;100.00
40998;BME280;26740;45.944;12.480;2022-09-29T12:24:45;99529.72;;;24.79;100.00
40998;BME280;26740;45.944;12.480;2022-09-29T12:30:29;99522.53;;;25.16;100.00
40998;BME280;26740;45.944;12.480;2022-09-29T12:33:18;99527.59;;;25.26;100.00
40998;BME280;26740;45.944;12.480;2022-09-29T12:35:52;99535.94;;;25.15;100.00
40998;BME280;26740;45.944;12.480;2022-09-29T12:38:38;99534.38;;;25.22;100.00
40998;BME280;26740;45.944;12.480;2022-09-29T12:46:47;99545.56;;;25.64;99.23
40998;BME280;26740;45.944;12.480;2022-09-29T12:51:56;99551.72;;;25.70;100.00
40998;BME280;26740;45.944;12.480;2022-09-29T12:54:45;99548.84;;;25.66;100.00
40998;BME280;26740;45.944;12.480;2022-09-29T12:57:16;99557.09;;;25.79;100.00
40998;BME280;26740;45.944;12.480;2022-09-29T12:59:58;99568.13;;;25.84;100.00
40998;BME280;26740;45.944;12.480;2022-09-29T13:08:18;99565.59;;;25.75;99.93
40998;BME280;26740;45.944;12.480;2022-09-29T13:11:35;99578.56;;;26.06;91.93
40998;BME280;26740;45.944;12.480;2022-09-29T13:20:09;99575.50;;;25.88;94.66
40998;BME280;26740;45.944;12.480;2022-09-29T13:26:21;99597.22;;;24.67;100.00
40998;BME280;26740;45.944;12.480;2022-09-29T13:28:59;99586.41;;;23.71;98.48
40998;BME280;26740;45.944;12.480;2022-09-29T13:31:28;99578.34;;;23.54;100.00
40998;BME280;26740;45.944;12.480;2022-09-29T13:33:59;99578.59;;;24.23;100.00
40998;BME280;26740;45.944;12.480;2022-09-29T13:36:34;99574.25;;;24.75;100.00
40998;BME280;26740;45.944;12.480;2022-09-29T13:39:28;99571.63;;;25.40;94.94
40998;BME280;26740;45.944;12.480;2022-09-29T13:41:54;99576.75;;;24.34;94.95
40998;BME280;26740;45.944;12.480;2022-09-29T13:44:23;99580.31;;;23.69;97.50
40998;BME280;26740;45.944;12.480;2022-09-29T13:46:50;99576.66;;;23.49;100.00
40998;BME280;26740;45.944;12.480;2022-09-29T13:54:41;99571.59;;;22.56;100.00
40998;BME280;26740;45.944;12.480;2022-09-29T13:59:38;99557.31;;;22.84;100.00
40998;BME280;26740;45.944;12.480;2022-09-29T14:08:15;99564.34;;;23.61;100.00
40998;BME280;26740;45.944;12.480;2022-09-29T14:10:47;99554.69;;;23.26;100.00
40998;BME280;26740;45.944;12.480;2022-09-29T14:18:29;99539.53;;;22.67;100.00
40998;BME280;26740;45.944;12.480;2022-09-29T14:21:01;99538.56;;;22.95;100.00
40998;BME280;26740;45.944;12.480;2022-09-29T14:26:47;99540.47;;;22.40;100.00
40998;BME280;26740;45.944;12.480;2022-09-29T14:29:26;99538.03;;;21.66;100.00
40998;BME280;26740;45.944;12.480;2022-09-29T14:31:55;99536.34;;;21.93;100.00
40998;BME280;26740;45.944;12.480;2022-09-29T14:34:26;99539.28;;;21.96;100.00
40998;BME280;26740;45.944;12.480;2022-09-29T14:36:53;99546.25;;;21.71;100.00
40998;BME280;26740;45.944;12.480;2022-09-29T14:39:21;99534.78;;;21.80;100.00
40998;BME280;26740;45.944;12.480;2022-09-29T14:41:48;99528.44;;;22.14;100.00
40998;BME280;26740;45.944;12.480;2022-09-29T14:44:24;99529.34;;;21.87;100.00
40998;BME280;26740;45.944;12.480;2022-09-29T14:47:13;99518.38;;;21.16;100.00
40998;BME280;26740;45.944;12.480;2022-09-29T14:53:16;99521.91;;;20.15;100.00
40998;BME280;26740;45.944;12.480;2022-09-29T15:01:33;99515.09;;;19.70;100.00
40998;BME280;26740;45.944;12.480;2022-09-29T15:04:11;99518.53;;;19.55;100.00
40998;BME280;26740;45.944;12.480;2022-09-29T15:06:51;99522.56;;;19.32;100.00
40998;BME280;26740;45.944;12.480;2022-09-29T15:09:19;99514.72;;;19.17;100.00
40998;BME280;26740;45.944;12.480;2022-09-29T15:11:53;99516.09;;;19.11;100.00
40998;BME280;26740;45.944;12.480;2022-09-29T15:14:26;99513.69;;;19.01;100.00
40998;BME280;26740;45.944;12.480;2022-09-29T15:25:34;99513.59;;;18.59;100.00
40998;BME280;26740;45.944;12.480;2022-09-29T15:28:11;99486.13;;;18.64;100.00
40998;BME280;26740;45.944;12.480;2022-09-29T15:30:38;99488.97;;;18.55;100.00
40998;BME280;26740;45.944;12.480;2022-09-29T15:33:27;99478.22;;;18.57;100.00
40998;BME280;26740;45.944;12.480;2022-09-29T15:35:57;99482.69;;;18.59;100.00
40998;BME280;26740;45.944;12.480;2022-09-29T15:40:54;99493.63;;;18.51;100.00